Latest Weather Observations for Mount Magnet Airport

IDW60801

Issued at 7:35 am WST Sunday 21 September 2014 (issued every 30 minutes, with the page automatically refreshed every 10 minutes)

About weather observations | Map of weather stations | Latest weather observations for WA | Other Formats
Station Details ID: 007600 Name: MOUNT MAGNET AERO Lat: -28.12 Lon: 117.84 Height: 407.0 m
Data from the previous 72 hours. | See also: Recent months at Mount Magnet Airport
Date/Time
WST
Temp
°C
App
Temp
°C
Dew
Point
Rel
Hum
%
Delta-T
°C
Wind Press
QNH
hPa
Press
MSL
hPa
Rain
since 9 am
mm
Dir
 
Spd
km/h
Gust
km/h
Spd
kts
Gust
kts
21/07:30am 21.6 16.8 2.8 29 9.1 NNE 17 24 9 13 1014.9 1013.9 0.0
21/07:00am 19.2 14.8 2.6 33 7.8 NNE 15 19 8 10 1014.9 1013.9 0.0
21/06:30am 17.7 13.2 2.1 35 7.2 N 15 17 8 9 1014.8 1013.8 0.0
21/06:00am 17.8 13.3 2.2 35 7.2 NNE 15 17 8 9 1014.5 1013.4 0.0
21/05:30am 17.9 13.4 2.2 35 7.3 N 15 20 8 11 1014.6 1013.6 0.0
21/05:00am 17.8 13.7 2.2 35 7.2 N 13 17 7 9 1014.4 1013.3 0.0
21/04:30am 17.4 13.3 2.2 36 7.0 N 13 15 7 8 1014.1 1013.0 0.0
21/04:00am 17.5 13.7 1.9 35 7.2 N 11 13 6 7 1014.0 1012.9 0.0
21/03:30am 18.9 14.6 3.1 35 7.5 NNE 15 22 8 12 1014.2 1013.1 0.0
21/03:00am 17.0 13.6 1.8 36 6.9 N 9 11 5 6 1014.5 1013.4 0.0
21/02:30am 17.7 13.9 1.7 34 7.3 NE 11 15 6 8 1014.6 1013.6 0.0
21/02:00am 18.0 14.5 1.5 33 7.5 NNE 9 13 5 7 1015.1 1014.1 0.0
21/01:30am 19.0 15.6 2.0 32 7.9 NNW 9 15 5 8 1015.5 1014.5 0.0
21/01:00am 19.6 17.6 2.5 32 8.1 E 2 13 1 7 1015.8 1014.8 0.0
21/12:30am 19.9 17.8 1.8 30 8.5 SE 2 6 1 3 1015.5 1014.5 0.0
21/12:00am 21.8 18.5 2.5 28 9.3 SW 9 13 5 7 1015.7 1014.7 0.0
 
Date/Time
WST
Temp
°C
App
Temp
°C
Dew
Point
Rel
Hum
%
Delta-T
°C
Wind Press
QNH
hPa
Press
MSL
hPa
Rain
since 9 am
mm
Dir
 
Spd
km/h
Gust
km/h
Spd
kts
Gust
kts
20/11:30pm 22.1 18.8 2.2 27 9.5 WNW 9 11 5 6 1015.5 1014.5 0.0
20/11:00pm 23.2 19.5 2.1 25 10.2 W 11 13 6 7 1015.7 1014.7 0.0
20/10:30pm 24.3 20.2 2.5 24 10.7 W 13 15 7 8 1015.9 1014.9 0.0
20/10:00pm 25.3 19.5 2.1 22 11.3 WNW 22 28 12 15 1016.1 1015.1 0.0
20/09:30pm 26.2 21.3 2.2 21 11.8 NW 17 22 9 12 1015.9 1014.9 0.0
20/09:00pm 26.8 21.5 2.0 20 12.2 NW 19 24 10 13 1015.9 1014.9 0.0
20/08:30pm 27.3 22.7 1.7 19 12.6 NW 15 20 8 11 1015.7 1014.7 0.0
20/08:00pm 28.0 23.4 1.5 18 13.1 NW 15 19 8 10 1015.5 1014.5 0.0
20/07:30pm 28.8 23.8 1.3 17 13.6 NW 17 20 9 11 1015.4 1014.4 0.0
20/07:00pm 29.5 24.5 1.1 16 14.0 NW 17 20 9 11 1015.0 1014.0 0.0
20/06:30pm 30.6 25.0 1.0 15 14.7 NNW 20 26 11 14 1014.6 1013.6 0.0
20/06:00pm 31.4 24.4 1.7 15 15.0 NNW 28 35 15 19 1014.2 1013.1 0.0
20/05:30pm 32.2 24.1 1.3 14 15.6 NNW 33 43 18 23 1013.8 1012.8 0.0
20/05:00pm 33.0 24.3 -0.2 12 16.4 NNW 35 48 19 26 1013.6 1012.6 0.0
20/04:30pm 33.8 25.4 -0.7 11 17.0 NNW 33 46 18 25 1013.2 1012.2 0.0
20/04:00pm 33.9 25.2 -0.7 11 17.1 N 35 46 19 25 1013.1 1012.1 0.0
20/03:51pm 34.2 26.1 -0.4 11 17.2 N 32 50 17 27 1013.2 1012.2 0.0
20/03:30pm 34.6 25.8 -1.4 10 17.7 N 35 48 19 26 1013.3 1012.3 0.0
20/03:27pm 34.1 25.4 -0.5 11 17.2 N 35 54 19 29 1013.4 1012.4 0.0
20/03:00pm 34.6 26.3 -0.1 11 17.4 N 33 48 18 26 1013.5 1012.5 0.0
20/02:37pm 34.3 24.6 0.8 12 17.0 NNW 41 48 22 26 1013.5 1012.5 0.0
20/02:30pm 34.1 26.1 0.7 12 16.9 NNE 32 44 17 24 1013.8 1012.8 0.0
20/02:00pm 34.6 26.5 1.1 12 17.1 N 33 54 18 29 1014.1 1013.0 0.0
20/01:30pm 34.7 27.6 1.1 12 17.2 N 28 52 15 28 1014.4 1013.3 0.0
20/01:05pm 33.6 25.9 2.4 14 16.2 N 32 50 17 27 1014.9 1013.9 0.0
20/01:00pm 33.6 25.2 1.4 13 16.4 N 35 50 19 27 1014.9 1013.9 0.0
20/12:50pm 33.7 26.2 1.5 13 16.5 NNE 30 59 16 32 1014.9 1013.9 0.0
20/12:30pm 33.5 25.8 2.4 14 16.1 N 32 44 17 24 1015.3 1014.3 0.0
20/12:00pm 32.9 26.1 2.9 15 15.6 NNE 28 43 15 23 1015.8 1014.8 0.0
20/11:32am 32.3 25.7 4.2 17 14.9 NNE 28 54 15 29 1016.2 1015.2 0.0
20/11:30am 31.6 24.9 3.6 17 14.6 NNE 28 35 15 19 1016.4 1015.4 0.0
20/11:00am 30.4 23.3 3.4 18 13.9 NE 30 41 16 22 1016.8 1015.8 0.0
20/10:48am 30.2 23.2 4.0 19 13.7 NNE 30 48 16 26 1016.9 1015.9 0.0
20/10:30am 30.3 24.6 4.9 20 13.5 NE 24 33 13 18 1017.0 1016.0 0.0
20/10:00am 27.9 20.9 4.2 22 12.2 NE 30 37 16 20 1017.5 1016.5 0.0
20/09:30am 26.6 19.7 4.4 24 11.4 NE 30 39 16 21 1017.7 1016.7 0.0
20/09:00am 26.0 19.1 4.5 25 11.0 NE 30 41 16 22 1017.9 1016.9 0.0
20/08:30am 24.7 18.0 3.9 26 10.5 NE 28 41 15 22 1018.2 1017.2 0.0
20/08:00am 23.0 17.8 3.5 28 9.6 NE 20 35 11 19 1018.2 1017.2 0.0
20/07:30am 21.8 16.8 3.5 30 9.0 NE 19 26 10 14 1018.0 1017.0 0.0
20/07:00am 19.5 15.5 2.8 33 7.9 NE 13 17 7 9 1017.5 1016.5 0.0
20/06:30am 17.9 13.8 2.2 35 7.3 NE 13 17 7 9 1017.4 1016.4 0.0
20/06:00am 15.6 12.5 1.3 38 6.4 E 7 9 4 5 1017.2 1016.2 0.0
20/05:30am 16.3 12.4 1.2 36 6.8 E 11 13 6 7 1017.1 1016.1 0.0
20/05:00am 17.2 13.0 1.6 35 7.1 E 13 15 7 8 1017.1 1016.1 0.0
20/04:30am 16.9 12.7 1.8 36 6.9 E 13 15 7 8 1017.0 1016.0 0.0
20/04:00am 15.0 11.6 -0.3 35 6.6 NE 7 9 4 5 1016.9 1015.9 0.0
20/03:30am 16.1 12.5 0.3 34 6.9 E 9 13 5 7 1016.7 1015.6 0.0
20/03:00am 16.5 12.5 0.2 33 7.2 ESE 11 15 6 8 1016.8 1015.8 0.0
20/02:30am 16.5 12.3 -0.7 31 7.4 ESE 11 13 6 7 1017.1 1016.1 0.0
20/02:00am 16.7 13.3 -0.9 30 7.6 ESE 7 9 4 5 1017.4 1016.4 0.0
20/01:30am 16.5 13.2 -1.1 30 7.5 E 6 7 3 4 1017.7 1016.7 0.0
20/01:00am 17.4 13.9 -1.3 28 8.0 ESE 7 9 4 5 1017.7 1016.7 0.0
20/12:30am 18.2 14.3 -1.6 26 8.5 SE 9 11 5 6 1018.0 1017.0 0.0
20/12:00am 18.9 15.0 -1.5 25 8.8 SE 9 13 5 7 1018.3 1017.3 0.0
 
Date/Time
WST
Temp
°C
App
Temp
°C
Dew
Point
Rel
Hum
%
Delta-T
°C
Wind Press
QNH
hPa
Press
MSL
hPa
Rain
since 9 am
mm
Dir
 
Spd
km/h
Gust
km/h
Spd
kts
Gust
kts
19/11:30pm 19.1 15.7 -0.8 26 8.8 ESE 7 9 4 5 1018.3 1017.3 0.0
19/11:00pm 20.1 16.8 -1.1 24 9.4 SE 6 7 3 4 1018.6 1017.6 0.0
19/10:30pm 20.8 17.6 -0.5 24 9.6 SSE 6 7 3 4 1018.9 1018.0 0.0
19/10:00pm 20.6 18.5 -0.7 24 9.5 CALM 0 4 0 2 1019.1 1018.1 0.0
19/09:30pm 21.3 18.0 -0.1 24 9.7 SE 7 9 4 5 1019.3 1018.3 0.0
19/09:00pm 22.1 20.0 -0.6 22 10.3 CALM 0 7 0 4 1019.3 1018.3 0.0
19/08:30pm 22.9 19.5 -0.6 21 10.7 SSW 7 7 4 4 1019.2 1018.2 0.0
19/08:00pm 23.4 19.6 -0.8 20 11.0 SW 9 11 5 6 1018.9 1018.0 0.0
19/07:30pm 24.7 21.5 -0.4 19 11.7 ESE 6 7 3 4 1018.6 1017.6 0.0
19/07:00pm 25.4 22.0 -0.6 18 12.1 E 7 9 4 5 1018.4 1017.4 0.0
19/06:30pm 26.4 22.5 -1.4 16 12.9 E 9 9 5 5 1018.1 1017.1 0.0
19/06:00pm 28.1 23.8 -1.9 14 13.9 E 11 13 6 7 1017.8 1016.8 0.0
19/05:30pm 29.0 24.2 -2.2 13 14.5 E 13 20 7 11 1017.7 1016.7 0.0
19/05:00pm 29.5 25.0 -2.9 12 14.9 S 11 19 6 10 1017.5 1016.5 0.0
19/04:30pm 29.3 24.4 -3.0 12 14.9 SE 13 20 7 11 1017.5 1016.5 0.0
19/04:00pm 29.2 25.2 -2.0 13 14.6 SE 9 15 5 8 1017.4 1016.4 0.0
19/03:30pm 29.2 24.5 -2.0 13 14.6 ESE 13 20 7 11 1017.5 1016.5 0.0
19/03:00pm 28.7 23.8 -0.5 15 13.9 ESE 15 24 8 13 1017.7 1016.7 0.0
19/02:30pm 28.8 25.2 0.5 16 13.8 W 9 13 5 7 1017.8 1016.8 0.0
19/02:00pm 28.1 23.8 0.8 17 13.3 SSW 13 20 7 11 1018.1 1017.1 0.0
19/01:30pm 27.8 23.2 1.3 18 13.0 ESE 15 20 8 11 1018.6 1017.6 0.0
19/01:00pm 27.3 22.5 2.4 20 12.4 SSE 17 26 9 14 1019.1 1018.1 0.0
19/12:30pm 27.2 21.7 1.6 19 12.6 S 20 26 11 14 1019.5 1018.5 0.0
19/12:00pm 26.5 23.0 3.7 23 11.5 ESE 11 19 6 10 1019.9 1018.9 0.0
19/11:30am 26.2 22.3 5.2 26 10.9 ESE 15 24 8 13 1020.3 1019.3 0.0
19/11:00am 25.0 20.7 5.2 28 10.2 SSE 17 28 9 15 1020.9 1019.9 0.0
19/10:30am 24.8 20.3 6.1 30 9.8 SSE 19 30 10 16 1021.0 1020.1 0.0
19/10:00am 23.3 19.3 6.6 34 8.7 SE 17 20 9 11 1021.2 1020.3 0.0
19/09:30am 21.9 18.4 7.0 38 7.8 SE 15 22 8 12 1021.2 1020.3 0.0
19/09:00am 20.5 17.1 7.8 44 6.7 SE 15 20 8 11 1021.2 1020.3 0.0
19/08:30am 19.1 15.7 7.8 48 5.9 SE 15 20 8 11 1021.5 1020.6 0.0
19/08:00am 17.5 13.7 7.5 52 5.1 SSE 17 22 9 12 1021.4 1020.5 0.0
19/07:30am 15.9 12.3 6.9 55 4.5 S 15 20 8 11 1021.2 1020.3 0.0
19/07:00am 14.9 11.6 6.5 57 4.1 SSW 13 15 7 8 1021.1 1020.2 0.0
19/06:30am 14.0 11.3 5.6 57 4.1 SW 9 11 5 6 1020.8 1019.8 0.0
19/06:00am 14.1 11.0 5.5 56 4.1 SW 11 13 6 7 1020.5 1019.5 0.0
19/05:30am 14.5 11.0 5.3 54 4.4 SW 13 15 7 8 1020.1 1019.1 0.0
19/05:00am 15.0 12.2 5.2 52 4.7 SW 9 11 5 6 1020.0 1019.0 0.0
19/04:30am 15.7 12.6 5.6 51 4.9 SSW 11 15 6 8 1019.6 1018.6 0.0
19/04:00am 16.1 12.7 5.7 50 5.1 SSW 13 19 7 10 1019.3 1018.3 0.0
19/03:30am 16.5 12.4 6.1 50 5.2 SSW 17 22 9 12 1019.1 1018.1 0.0
19/03:00am 17.0 13.0 6.5 50 5.3 SSW 17 24 9 13 1019.2 1018.2 0.0
19/02:30am 17.4 13.4 6.6 49 5.5 SSW 17 22 9 12 1018.9 1018.0 0.0
19/02:00am 18.0 14.1 7.1 49 5.6 SSW 17 22 9 12 1018.9 1018.0 0.0
19/01:30am 18.6 14.4 7.4 48 5.8 SSW 19 24 10 13 1019.1 1018.1 0.0
19/01:00am 19.0 15.6 7.8 48 5.8 SW 15 20 8 11 1018.9 1018.0 0.0
19/12:30am 19.5 16.2 8.2 48 6.0 SW 15 19 8 10 1018.9 1018.0 0.0
19/12:00am 20.2 16.9 8.2 46 6.3 SW 15 20 8 11 1018.8 1017.9 0.0
 
Date/Time
WST
Temp
°C
App
Temp
°C
Dew
Point
Rel
Hum
%
Delta-T
°C
Wind Press
QNH
hPa
Press
MSL
hPa
Rain
since 9 am
mm
Dir
 
Spd
km/h
Gust
km/h
Spd
kts
Gust
kts
18/11:30pm 20.8 16.8 8.4 45 6.6 SSW 19 26 10 14 1018.7 1017.7 0.0
18/11:00pm 21.5 17.1 7.3 40 7.4 SSW 20 28 11 15 1018.7 1017.7 0.0
18/10:30pm 22.0 16.5 5.8 35 8.3 SW 24 32 13 17 1018.7 1017.7 0.0
18/10:00pm 22.5 17.9 3.6 29 9.3 WSW 17 28 9 15 1018.6 1017.6 0.0
18/09:30pm 22.7 18.8 3.3 28 9.5 WSW 13 15 7 8 1018.2 1017.2 0.0
18/09:00pm 23.5 19.5 2.9 26 10.1 W 13 17 7 9 1018.0 1017.0 0.0
18/08:30pm 24.4 20.4 3.1 25 10.5 W 13 17 7 9 1017.8 1016.8 0.0
18/08:00pm 24.8 21.6 2.9 24 10.8 WSW 9 11 5 6 1017.4 1016.4 0.0
18/07:30pm 26.0 22.1 3.3 23 11.4 W 13 17 7 9 1016.9 1015.9 0.0
18/07:00pm 26.7 22.0 3.2 22 11.8 W 17 20 9 11 1016.7 1015.6 0.0
18/06:30pm 27.3 23.0 3.1 21 12.2 W 15 20 8 11 1016.2 1015.2 0.0
18/06:00pm 28.0 23.3 3.0 20 12.6 W 17 20 9 11 1015.6 1014.6 0.0
18/05:30pm 28.7 23.6 2.8 19 13.1 W 19 26 10 14 1015.3 1014.3 0.0
18/05:00pm 29.0 23.7 3.1 19 13.2 SW 20 24 11 13 1015.1 1014.1 0.0
18/04:30pm 29.4 24.6 2.6 18 13.6 W 17 26 9 14 1014.8 1013.8 0.0
18/04:00pm 29.3 24.6 3.3 19 13.3 W 17 28 9 15 1014.7 1013.7 0.0
18/03:30pm 29.8 24.5 2.9 18 13.7 W 20 26 11 14 1014.7 1013.7 0.0
18/03:00pm 30.0 26.0 3.1 18 13.8 W 13 22 7 12 1014.5 1013.4 0.0
18/02:30pm 29.8 24.5 2.9 18 13.7 WSW 20 30 11 16 1014.5 1013.4 0.0
18/02:00pm 28.6 24.0 3.5 20 12.9 W 17 24 9 13 1014.8 1013.8 0.0
18/01:30pm 28.5 23.8 3.4 20 12.8 W 17 26 9 14 1015.0 1014.0 0.0
18/01:00pm 28.2 24.0 3.8 21 12.5 W 15 26 8 14 1015.0 1014.0 0.0
18/12:30pm 28.4 22.9 4.0 21 12.6 W 22 30 12 16 1015.5 1014.5 0.0
18/12:00pm 27.7 23.8 7.0 27 11.2 W 17 20 9 11 1016.1 1015.1 0.0
18/11:30am 26.5 22.3 7.5 30 10.3 WSW 19 28 10 15 1016.7 1015.6 0.0
18/11:00am 25.4 21.6 7.5 32 9.6 WSW 17 20 9 11 1016.8 1015.8 0.0
18/10:30am 24.8 21.6 8.3 35 9.0 WSW 15 22 8 12 1017.0 1016.0 0.0
18/10:00am 22.9 19.8 9.0 41 7.6 WSW 15 19 8 10 1017.2 1016.2 0.0
18/09:30am 21.2 18.6 9.4 47 6.4 WSW 13 17 7 9 1017.4 1016.4 0.0
18/09:00am 20.0 17.5 9.6 51 5.6 WSW 13 17 7 9 1017.4 1016.4 0.0
18/08:30am 18.8 16.0 10.1 57 4.7 WSW 15 17 8 9 1017.4 1016.4 0.0
18/08:00am 17.9 14.8 10.3 61 4.1 W 17 22 9 12 1017.1 1016.1 0.0

Other Formats:

Comma delimited format used in spreadsheet applications
http://www.bom.gov.au/fwo/IDW60801/IDW60801.94429.axf

JavaScript Object Notation format (JSON) in row-major order
http://www.bom.gov.au/fwo/IDW60801/IDW60801.94429.json